Racecast

Cadence Siow

Grants (NM) · 12 · AAAAANM D4ADistrict 5AAAA · Compare head to head

Athlete ratingi 114.9 2022 XC season
Best race 119.2 XC
Races 36
Seasons 4 2019 — 2023

RankedNation #26069·NM #139·NM D4A #67·AAAAA #31·Team #4 ?

Speed rating — all races

Cross Country

XC speed rating

2022 XC 113.5

UNA NM (NM) · Grade 12

Date Meet Event Result Place Ratingi Difficultyi PR/SR Flags
2022-11-19 Coyote Run Golf Course at Leisure World 5000m 21:32.4 56th · 3rd on team 119.2 +0.7% ★PR ★CR ★R SR CSR RSR
2022-11-05 Albuquerque Academy 5000m 21:58.6 41st · 2nd on team 115.1 -1.3% PR ★CR R SR CSR RSR
2022-10-29 Valencia HS 4860m 21:18 10th · 2nd on team 112.2 -3.3% ★PR ★CR SR CSR
2022-10-21 Grants HS 4828m 21:08.5 9th · 2nd on team 114.1 -1.8% ★PR ★CR R SR CSR RSR
2022-10-15 Albuquerque Academy 5000m 22:36.2 29th · 2nd on team 111.4 -1.3% PR CR SR CSR
2022-10-01 Red Rock State Park 5000m 23:11.1 16th · 2nd on team 112.4 +2.2% ★CR R SR CSR RSR
2022-09-17 Rio Rancho HS 5000m 23:47 18th · 2nd on team 110.3 +2.7% ★CR R SR CSR RSR

2021 XC 104.2

Grants (NM) · Grade 11

Date Meet Event Result Place Ratingi Difficultyi PR/SR Flags
2021-11-06 Albuquerque Academy XC Course 5000m 23:45.7 72nd · 4th on team 106.9 +0.3% ★CR CSR
2021-10-30 St. Pius High School 5000m 23:11 18th · 4th on team 109.5 -1.3% ★CR R CSR RSR
2021-10-22 Grants, NM 5000m 22:58.2 20th · 4th on team 107.0 -4.4% PR ★CR SR CSR RSR
2021-10-09 Zuni CC Course 4828m 24:39.8 26th · 4th on team 105.9 +5.1% PR ★CR SR CSR RSR
2021-10-02 Red Rock State Park 5000m 25:32.7 40th · 4th on team 102.9 +2.2% CR SR CSR
2021-09-25 Rio Rancho HS 5000m 25:34.4 43rd · 4th on team 103.5 +2.7% CR SR CSR RSR
2021-09-04 Rehoboth XC Course 4779m 28:43.2 35th · 4th on team 93.4 +9.6% ★PR ★CR SR CSR RSR

2019 XC 105.9

Grants (NM) · Grade 10

Date Meet Event Result Place Ratingi Difficultyi PR/SR Flags
2019-11-01 Kerr-McGee Park 5000m 23:17.6 14th · 4th on team 108.9 -0.1% PR ★CR R SR CSR RSR
2019-09-27 Albuquerque Academy 5000m 23:45.7 91st · 3rd on team 107.2 +0.3% PR ★CR SR CSR
2019-09-21 Terra del Sol Golf Course 5000m 24:37.9 32nd · 3rd on team 107.7 +4.5% PR ★CR R SR CSR RSR
2019-09-21 Belen High School 5000m 24:38 32nd · 3rd on team 106.7 +2.9% ★CR CSR
2019-09-14 Fort Wingate 5000m 27:43 15th · 3rd on team 106.7 +16.6% PR ★CR R SR CSR RSR
2019-09-07 Rehoboth High School 4828m 27:22 37th · 5th on team 98.1 +9.6% PR ★CR R SR CSR RSR

Track & Field

TF speed rating

2023 TF

Grants (NM) · Grade 12

Date Meet Event Result Place Ratingi Difficultyi PR/SR Flags
2023-05-06 NM District 5-4A Championships javelin 50-04 +2.9%
2023-05-06 NM District 5-4A Championships 200m 32.52 20th · 4th on team +2.9%
2023-04-22 Grants Pirate Invitational javelin 56-0 +4.8%
2023-04-22 Grants Pirate Invitational 200m 30.09 9th · 1st on team +4.8% ★PR SR
2023-04-22 Grants Pirate Invitational 100m 15.27 13th · 2nd on team +4.8% ★PR SR
2023-03-11 Mike Pecos Invitational javelin 50-03 +2.3%
2023-03-11 Mike Pecos Invitational 200m 32.51 11th · 1st on team +2.3% SR
2023-03-11 Mike Pecos Invitational 400m 1:14.17 10th · 1st on team +2.3% ★PR SR
2023-03-11 Mike Pecos Invitational 100m 15.39 15th · 1st on team +2.3% PR SR

2022 TF

Grants (NM) · Grade 11

Date Meet Event Result Place Ratingi Difficultyi PR/SR Flags
2022-04-23 Grants Invitational javelin 52-08.00 +4.8%
2022-04-23 Grants Invitational 200m 31.96 3rd · 2nd on team +4.8% PR SR
2022-03-12 Mike Pecos Invitational 300mh 1:05.6 8th · 3rd on team +2.3%
2022-03-12 Mike Pecos Invitational 200m 34.37 22nd · 1st on team +2.3%
2022-03-05 Los Lunas Invitational 300mh 1:04.73 19th · 3rd on team +1.9% ★PR SR
2022-03-05 Los Lunas Invitational 200m 32.94 18th · 1st on team +1.9% PR SR
2022-03-05 Los Lunas Invitational 400m 1:19.13 30th · 4th on team +1.9% PR SR